createdAt,value
2018-01-05T00:00:20.932Z,99219.34
2018-01-05T00:02:54.007Z,99207.70
2018-01-05T00:05:25.260Z,99211.27
2018-01-05T00:07:57.980Z,99202.64
2018-01-05T00:10:29.239Z,99198.39
2018-01-05T00:12:59.885Z,99215.70
2018-01-05T00:15:31.567Z,99207.41
2018-01-05T00:18:08.757Z,99194.73
2018-01-05T00:20:40.437Z,99197.20
2018-01-05T00:23:13.268Z,99219.38
2018-01-05T00:25:44.224Z,99211.86
2018-01-05T00:28:18.342Z,99221.70
2018-01-05T00:33:34.808Z,99209.58
2018-01-05T00:36:08.920Z,99217.95
2018-01-05T00:38:44.213Z,99209.88
2018-01-05T00:41:17.013Z,99225.50
2018-01-05T00:43:48.004Z,99217.27
2018-01-05T00:46:19.308Z,99228.56
2018-01-05T00:48:50.580Z,99228.44
2018-01-05T00:51:21.926Z,99235.30
2018-01-05T00:53:54.118Z,99233.72
2018-01-05T00:56:26.360Z,99234.94
2018-01-05T00:58:57.340Z,99242.73
2018-01-05T01:01:29.940Z,99244.82
2018-01-05T01:07:07.881Z,99245.30
2018-01-05T01:09:41.447Z,99257.27
2018-01-05T01:12:13.592Z,99246.03
2018-01-05T01:14:48.231Z,99244.52
2018-01-05T01:17:21.279Z,99226.80
2018-01-05T01:19:52.901Z,99244.15
2018-01-05T01:22:26.261Z,99259.22
2018-01-05T01:24:58.017Z,99251.14
2018-01-05T01:27:31.296Z,99243.98
2018-01-05T01:30:08.328Z,99234.83
2018-01-05T01:32:43.182Z,99233.09
2018-01-05T01:35:18.688Z,99223.98
2018-01-05T01:37:51.654Z,99239.87
2018-01-05T01:40:25.609Z,99231.14
2018-01-05T01:42:58.770Z,99227.56
2018-01-05T01:45:39.157Z,99224.88
2018-01-05T01:48:19.102Z,99233.33
2018-01-05T01:50:50.605Z,99233.56
2018-01-05T01:53:22.958Z,99232.37
2018-01-05T01:55:58.015Z,99234.55
2018-01-05T01:58:31.476Z,99228.40
2018-01-05T02:01:04.132Z,99217.53
2018-01-05T02:03:35.705Z,99225.73
2018-01-05T02:06:07.949Z,99225.63
2018-01-05T02:08:42.103Z,99220.91
2018-01-05T02:11:14.400Z,99211.13
2018-01-05T02:13:48.340Z,99217.56
2018-01-05T02:16:22.722Z,99207.19
2018-01-05T02:18:57.892Z,99204.41
2018-01-05T02:21:29.549Z,99206.05
2018-01-05T02:24:03.907Z,99212.67
2018-01-05T02:26:35.005Z,99193.40
2018-01-05T02:29:05.987Z,99185.50
2018-01-05T02:31:39.342Z,99178.95
2018-01-05T02:34:14.767Z,99175.68
2018-01-05T02:36:49.306Z,99163.37
2018-01-05T02:39:20.831Z,99163.15
2018-01-05T02:41:51.935Z,99171.23
2018-01-05T02:44:23.756Z,99173.81
2018-01-05T02:46:54.464Z,99179.86
2018-01-05T02:49:27.829Z,99167.94
2018-01-05T02:51:59.730Z,99166.95
2018-01-05T02:54:30.764Z,99161.61
2018-01-05T02:57:02.994Z,99162.02
2018-01-05T02:59:34.508Z,99157.45
2018-01-05T03:02:05.693Z,99155.59
2018-01-05T03:04:37.177Z,99152.93
2018-01-05T03:07:08.424Z,99164.09
2018-01-05T03:09:40.285Z,99155.26
2018-01-05T03:12:12.052Z,99145.52
2018-01-05T03:14:42.351Z,99153.75
2018-01-05T03:17:13.323Z,99154.33
2018-01-05T03:19:49.094Z,99147.34
2018-01-05T03:22:19.419Z,99132.30
2018-01-05T03:24:51.004Z,99116.84
2018-01-05T03:27:22.881Z,99126.22
2018-01-05T03:29:55.183Z,99123.91
2018-01-05T03:32:26.773Z,99135.28
2018-01-05T03:34:57.272Z,99122.09
2018-01-05T03:37:29.314Z,99138.08
2018-01-05T03:40:01.023Z,99137.08
2018-01-05T03:42:32.270Z,99133.95
2018-01-05T03:45:13.873Z,99153.66
2018-01-05T03:47:45.172Z,99132.39
2018-01-05T03:50:16.938Z,99133.11
2018-01-05T03:52:54.331Z,99109.84
2018-01-05T03:55:26.055Z,99112.19
2018-01-05T03:57:56.733Z,99123.70
2018-01-05T04:00:27.977Z,99136.69
2018-01-05T04:02:58.922Z,99129.95
2018-01-05T04:05:29.416Z,99133.50
2018-01-05T04:07:59.961Z,99118.41
2018-01-05T04:10:31.314Z,99094.23
2018-01-05T04:13:02.331Z,99089.41
2018-01-05T04:15:33.622Z,99104.05
2018-01-05T04:18:04.400Z,99103.28
2018-01-05T04:20:35.153Z,99104.98
2018-01-05T04:23:06.149Z,99104.56
2018-01-05T04:25:38.376Z,99101.05
2018-01-05T04:28:09.658Z,99088.97
2018-01-05T04:30:42.321Z,99080.77
2018-01-05T04:33:13.371Z,99088.66
2018-01-05T04:35:44.473Z,99090.48
2018-01-05T04:38:15.442Z,99063.80
2018-01-05T04:40:46.110Z,99086.83
2018-01-05T04:43:18.243Z,99086.34
2018-01-05T04:45:51.078Z,99079.69
2018-01-05T04:48:32.717Z,99072.41
2018-01-05T04:51:03.696Z,99074.19
2018-01-05T04:53:34.937Z,99074.14
2018-01-05T04:56:09.679Z,99083.83
2018-01-05T04:58:41.496Z,99066.34
2018-01-05T05:01:12.427Z,99083.08
2018-01-05T05:03:43.211Z,99073.84
2018-01-05T05:06:15.012Z,99068.31
2018-01-05T05:08:45.539Z,99067.08
2018-01-05T05:11:15.957Z,99064.13
2018-01-05T05:13:46.434Z,99069.86
2018-01-05T05:16:22.539Z,99069.61
2018-01-05T05:18:53.444Z,99060.44
2018-01-05T05:21:24.326Z,99074.45
2018-01-05T05:23:55.016Z,99077.95
2018-01-05T05:26:26.361Z,99073.21
2018-01-05T05:28:58.245Z,99073.51
2018-01-05T05:31:29.921Z,99080.25
2018-01-05T05:34:04.107Z,99075.84
2018-01-05T05:36:35.130Z,99076.53
2018-01-05T05:39:06.333Z,99078.52
2018-01-05T05:41:36.563Z,99086.73
2018-01-05T05:44:06.720Z,99086.58
2018-01-05T05:46:38.293Z,99093.26
2018-01-05T05:49:09.177Z,99103.88
2018-01-05T05:51:40.839Z,99098.92
2018-01-05T05:54:12.292Z,99100.92
2018-01-05T05:56:44.104Z,99097.47
2018-01-05T05:59:18.845Z,99098.84
2018-01-05T06:01:50.336Z,99094.02
2018-01-05T06:04:21.143Z,99112.03
2018-01-05T06:06:53.215Z,99115.03
2018-01-05T06:09:24.776Z,99125.77
2018-01-05T06:11:55.841Z,99154.74
2018-01-05T06:14:26.631Z,99141.81
2018-01-05T06:16:58.809Z,99135.24
2018-01-05T06:19:30.359Z,99128.38
2018-01-05T06:22:01.282Z,99102.19
2018-01-05T06:24:33.997Z,99141.98
2018-01-05T06:27:05.145Z,99150.45
2018-01-05T06:29:56.346Z,99098.51
2018-01-05T06:32:30.991Z,99149.13
2018-01-05T06:35:02.537Z,99163.88
2018-01-05T06:37:34.133Z,99163.36
2018-01-05T06:40:07.070Z,99152.12
2018-01-05T06:42:37.352Z,99151.73
2018-01-05T06:45:14.023Z,99145.39
2018-01-05T06:47:44.667Z,99153.87
2018-01-05T06:50:15.601Z,99159.84
2018-01-05T06:52:48.200Z,99160.14
2018-01-05T06:55:20.018Z,99157.92
2018-01-05T06:57:51.188Z,99162.48
2018-01-05T07:00:21.826Z,99163.66
2018-01-05T07:05:31.367Z,99168.79
2018-01-05T07:08:01.711Z,99176.08
2018-01-05T07:10:32.800Z,99169.95
2018-01-05T07:13:03.602Z,99164.22
2018-01-05T07:15:33.897Z,99154.23
2018-01-05T07:18:04.624Z,99152.63
2018-01-05T07:20:36.762Z,99164.73
2018-01-05T07:23:07.007Z,99159.36
2018-01-05T07:25:37.819Z,99178.80
2018-01-05T07:28:08.598Z,99179.94
2018-01-05T07:30:40.256Z,99167.31
2018-01-05T07:33:11.175Z,99189.72
2018-01-05T07:35:48.310Z,99195.81
2018-01-05T07:38:18.939Z,99198.48
2018-01-05T07:40:50.314Z,99207.98
2018-01-05T07:43:21.552Z,99205.19
2018-01-05T07:45:53.131Z,99202.25
2018-01-05T07:48:27.656Z,99214.81
2018-01-05T07:50:58.223Z,99219.30
2018-01-05T07:53:29.138Z,99218.34
2018-01-05T07:56:28.967Z,99216.59
2018-01-05T07:58:59.596Z,99228.38
2018-01-05T08:01:30.920Z,99237.58
2018-01-05T08:04:20.979Z,99214.86
2018-01-05T08:06:52.615Z,99243.31
2018-01-05T08:09:24.005Z,99243.23
2018-01-05T08:11:54.620Z,99261.36
2018-01-05T08:14:25.419Z,99262.92
2018-01-05T08:16:57.313Z,99243.68
2018-01-05T08:19:27.975Z,99256.21
2018-01-05T08:22:01.686Z,99268.09
2018-01-05T08:24:43.218Z,99280.46
2018-01-05T08:27:15.291Z,99279.69
2018-01-05T08:29:46.765Z,99285.28
2018-01-05T08:32:17.996Z,99281.27
2018-01-05T08:34:54.404Z,99251.42
2018-01-05T08:37:26.171Z,99279.21
2018-01-05T08:39:56.302Z,99286.16
2018-01-05T08:42:27.832Z,99296.75
2018-01-05T08:44:58.935Z,99299.44
2018-01-05T08:47:30.134Z,99307.41
2018-01-05T08:50:01.093Z,99320.36
2018-01-05T08:52:32.073Z,99318.14
2018-01-05T08:55:03.424Z,99314.31
2018-01-05T08:57:34.125Z,99301.77
2018-01-05T09:00:09.279Z,99282.39
2018-01-05T09:02:40.835Z,99302.99
2018-01-05T09:05:11.974Z,99312.01
2018-01-05T09:10:23.099Z,99306.97
2018-01-05T09:13:09.039Z,99310.42
2018-01-05T09:15:41.292Z,99310.14
2018-01-05T09:18:11.673Z,99314.30
2018-01-05T09:20:42.970Z,99316.51
2018-01-05T09:23:13.662Z,99330.59
2018-01-05T09:25:54.119Z,99325.13
2018-01-05T09:28:26.087Z,99323.80
2018-01-05T09:30:58.167Z,99339.17
2018-01-05T09:33:28.936Z,99328.41
2018-01-05T09:35:59.907Z,99324.05
2018-01-05T09:38:31.066Z,99326.26
2018-01-05T09:41:02.736Z,99331.22
2018-01-05T09:43:32.970Z,99322.34
2018-01-05T09:46:03.539Z,99328.42
2018-01-05T09:48:34.645Z,99330.91
2018-01-05T09:51:05.121Z,99330.48
2018-01-05T09:53:35.766Z,99326.42
2018-01-05T09:56:06.804Z,99324.25
2018-01-05T09:58:37.704Z,99333.80
2018-01-05T10:01:10.203Z,99333.88
2018-01-05T10:03:41.739Z,99335.80
2018-01-05T10:06:12.128Z,99337.56
2018-01-05T10:08:44.200Z,99334.09
2018-01-05T10:11:17.109Z,99343.09
2018-01-05T10:13:47.555Z,99343.34
2018-01-05T10:16:18.512Z,99349.20
2018-01-05T10:18:49.893Z,99356.95
2018-01-05T10:21:20.001Z,99354.05
2018-01-05T10:23:50.906Z,99357.64
2018-01-05T10:26:21.901Z,99364.59
2018-01-05T10:28:53.621Z,99362.52
2018-01-05T10:31:25.967Z,99360.05
2018-01-05T10:33:56.214Z,99360.64
2018-01-05T10:36:27.210Z,99349.67
2018-01-05T10:38:57.942Z,99359.22
2018-01-05T10:41:28.498Z,99352.59
2018-01-05T10:43:59.244Z,99350.34
2018-01-05T10:46:30.942Z,99360.30
2018-01-05T10:49:02.608Z,99355.22
2018-01-05T10:51:34.287Z,99345.48
2018-01-05T10:54:05.050Z,99363.66
2018-01-05T10:56:36.247Z,99358.67
2018-01-05T10:59:10.119Z,99361.55
2018-01-05T11:01:42.067Z,99348.29
2018-01-05T11:04:14.408Z,99358.22
2018-01-05T11:06:59.683Z,99350.27
2018-01-05T11:09:36.519Z,99345.23
2018-01-05T11:12:08.204Z,99354.13
2018-01-05T11:14:40.594Z,99356.09
2018-01-05T11:17:20.788Z,99361.44
2018-01-05T11:19:59.183Z,99352.41
2018-01-05T11:22:33.093Z,99359.87
2018-01-05T11:25:03.554Z,99353.94
2018-01-05T11:27:35.161Z,99354.92
2018-01-05T11:30:19.703Z,99353.22
2018-01-05T11:32:50.906Z,99349.70
2018-01-05T11:35:24.942Z,99357.31
2018-01-05T11:37:57.463Z,99354.22
2018-01-05T11:40:31.276Z,99326.09
2018-01-05T11:43:01.513Z,99331.05
2018-01-05T11:45:34.993Z,99347.78
2018-01-05T11:48:22.035Z,99338.89
2018-01-05T11:50:54.147Z,99341.50
2018-01-05T11:53:25.256Z,99337.95
2018-01-05T11:55:56.636Z,99343.86
2018-01-05T11:58:28.259Z,99343.80
2018-01-05T12:00:59.509Z,99356.14
2018-01-05T12:03:30.212Z,99352.80
2018-01-05T12:06:02.585Z,99350.86
2018-01-05T12:08:34.475Z,99345.46
2018-01-05T12:11:07.997Z,99349.23
2018-01-05T12:13:39.058Z,99337.31
2018-01-05T12:16:11.406Z,99340.77
2018-01-05T12:18:42.555Z,99342.28
2018-01-05T12:21:14.204Z,99346.89
2018-01-05T12:23:51.234Z,99336.55
2018-01-05T12:26:21.879Z,99341.19
2018-01-05T12:28:55.357Z,99330.95
2018-01-05T12:31:28.496Z,99310.13
2018-01-05T12:34:00.026Z,99302.38
2018-01-05T12:36:31.986Z,99311.42
2018-01-05T12:39:04.101Z,99316.36
2018-01-05T12:41:35.174Z,99337.61
2018-01-05T12:44:06.208Z,99325.86
2018-01-05T12:46:40.579Z,99325.30
2018-01-05T12:49:11.773Z,99319.75
2018-01-05T12:51:43.591Z,99325.03
2018-01-05T12:54:15.669Z,99322.91
2018-01-05T12:56:46.406Z,99329.62
2018-01-05T12:59:17.813Z,99332.47
2018-01-05T13:01:50.665Z,99339.45
2018-01-05T13:04:21.621Z,99340.73
2018-01-05T13:06:52.921Z,99336.90
2018-01-05T13:09:24.499Z,99338.19
2018-01-05T13:12:04.178Z,99330.89
2018-01-05T13:14:37.345Z,99327.59
2018-01-05T13:17:09.538Z,99331.25
2018-01-05T13:19:44.268Z,99333.09
2018-01-05T13:22:16.975Z,99324.56
2018-01-05T13:24:49.457Z,99341.00
2018-01-05T13:27:21.103Z,99350.27
2018-01-05T13:35:00.470Z,99353.17
2018-01-05T13:37:32.020Z,99355.52
2018-01-05T13:40:03.447Z,99357.73
2018-01-05T13:42:35.008Z,99352.54
2018-01-05T13:45:09.938Z,99348.45
2018-01-05T13:47:43.157Z,99357.54
2018-01-05T13:50:14.162Z,99355.08
2018-01-05T13:52:44.533Z,99356.05
2018-01-05T13:55:15.016Z,99343.48
2018-01-05T13:57:45.535Z,99359.83
2018-01-05T14:02:53.154Z,99357.64
2018-01-05T14:05:24.038Z,99363.36
2018-01-05T14:07:55.131Z,99341.61
2018-01-05T14:10:25.338Z,99359.10
2018-01-05T14:12:57.071Z,99363.55
2018-01-05T14:15:28.095Z,99366.38
2018-01-05T14:18:00.357Z,99374.89
2018-01-05T14:20:31.056Z,99379.67
2018-01-05T14:23:01.529Z,99378.72
2018-01-05T14:25:31.900Z,99380.16
2018-01-05T14:28:02.421Z,99369.14
2018-01-05T14:30:33.204Z,99373.23
2018-01-05T14:33:04.524Z,99367.70
2018-01-05T14:35:35.666Z,99364.70
2018-01-05T14:38:08.323Z,99362.87
2018-01-05T14:40:40.046Z,99372.89
2018-01-05T14:43:10.684Z,99380.38
2018-01-05T14:45:42.542Z,99382.64
2018-01-05T14:48:27.568Z,99360.84
2018-01-05T14:50:58.501Z,99365.47
2018-01-05T14:53:30.163Z,99371.05
2018-01-05T14:56:01.067Z,99380.34
2018-01-05T14:58:32.318Z,99373.48
2018-01-05T15:01:03.270Z,99355.42
2018-01-05T15:03:33.840Z,99370.43
2018-01-05T15:06:04.362Z,99359.63
2018-01-05T15:08:34.912Z,99368.88
2018-01-05T15:11:05.483Z,99369.47
2018-01-05T15:13:38.768Z,99367.31
2018-01-05T15:16:11.182Z,99368.01
2018-01-05T15:18:41.705Z,99370.55
2018-01-05T15:21:11.936Z,99370.83
2018-01-05T15:23:53.402Z,99374.23
2018-01-05T15:26:24.635Z,99380.22
2018-01-05T15:28:55.150Z,99386.03
2018-01-05T15:31:28.047Z,99383.44
2018-01-05T15:34:00.724Z,99389.97
2018-01-05T15:36:31.547Z,99382.34
2018-01-05T15:39:02.284Z,99373.41
2018-01-05T15:41:39.393Z,99376.23
2018-01-05T15:44:16.777Z,99380.81
2018-01-05T15:46:48.275Z,99382.08
2018-01-05T15:49:19.363Z,99385.80
2018-01-05T15:51:50.234Z,99375.84
2018-01-05T15:54:22.427Z,99374.58
2018-01-05T15:56:54.064Z,99377.14
2018-01-05T15:59:24.564Z,99382.72
2018-01-05T16:01:57.121Z,99384.75
2018-01-05T16:04:29.786Z,99384.28
2018-01-05T16:07:03.582Z,99361.58
2018-01-05T16:09:34.291Z,99372.06
2018-01-05T16:12:05.106Z,99381.55
2018-01-05T16:14:36.014Z,99389.35
2018-01-05T16:17:07.002Z,99381.47
2018-01-05T16:19:42.968Z,99394.11
2018-01-05T16:22:13.738Z,99390.86
2018-01-05T16:24:46.338Z,99392.36
2018-01-05T16:27:17.390Z,99386.31
2018-01-05T16:29:48.718Z,99384.64
2018-01-05T16:32:19.788Z,99373.52
2018-01-05T16:34:52.609Z,99358.88
2018-01-05T16:37:24.020Z,99394.19
2018-01-05T16:39:56.668Z,99395.09
2018-01-05T16:42:27.427Z,99385.19
2018-01-05T16:45:04.464Z,99395.22
2018-01-05T16:47:35.043Z,99380.19
2018-01-05T16:50:07.525Z,99397.27
2018-01-05T16:52:37.835Z,99395.33
2018-01-05T16:55:08.866Z,99407.05
2018-01-05T16:57:39.705Z,99400.72
2018-01-05T17:00:13.089Z,99397.50
2018-01-05T17:02:43.888Z,99395.94
2018-01-05T17:05:51.382Z,99404.05
2018-01-05T17:08:22.055Z,99408.52
2018-01-05T17:10:58.835Z,99422.98
2018-01-05T17:13:29.526Z,99399.94
2018-01-05T17:16:00.113Z,99410.12
2018-01-05T17:18:30.502Z,99405.38
2018-01-05T17:21:01.186Z,99410.44
2018-01-05T17:23:31.489Z,99412.20
2018-01-05T17:26:02.136Z,99405.38
2018-01-05T17:28:32.651Z,99409.53
2018-01-05T17:31:03.113Z,99402.58
2018-01-05T17:33:33.870Z,99408.83
2018-01-05T17:36:04.522Z,99410.20
2018-01-05T17:38:35.050Z,99404.11
2018-01-05T17:41:06.720Z,99410.91
2018-01-05T17:43:41.271Z,99415.81
2018-01-05T17:46:12.087Z,99408.52
2018-01-05T17:48:43.876Z,99410.75
2018-01-05T17:51:15.570Z,99425.42
2018-01-05T17:53:46.178Z,99421.00
2018-01-05T17:56:23.984Z,99423.85
2018-01-05T17:58:55.373Z,99420.06
2018-01-05T18:01:31.297Z,99425.99
2018-01-05T18:04:02.493Z,99425.55
2018-01-05T18:06:33.415Z,99414.09
2018-01-05T18:09:07.247Z,99425.50
2018-01-05T18:11:37.750Z,99436.78
2018-01-05T18:14:08.307Z,99428.68
2018-01-05T18:16:46.248Z,99437.97
2018-01-05T18:19:17.341Z,99427.85
2018-01-05T18:21:49.818Z,99409.66
2018-01-05T18:24:20.230Z,99423.66
2018-01-05T18:26:53.085Z,99418.20
2018-01-05T18:29:23.863Z,99418.20
2018-01-05T18:31:54.947Z,99425.48
2018-01-05T18:34:28.722Z,99437.72
2018-01-05T18:37:00.692Z,99439.98
2018-01-05T18:39:32.654Z,99437.78
2018-01-05T18:42:03.532Z,99437.20
2018-01-05T18:44:34.969Z,99439.40
2018-01-05T18:47:07.154Z,99447.23
2018-01-05T18:49:38.295Z,99457.20
2018-01-05T18:54:53.508Z,99464.01
2018-01-05T18:57:24.513Z,99474.62
2018-01-05T18:59:55.254Z,99484.34
2018-01-05T19:02:26.216Z,99481.16
2018-01-05T19:04:59.844Z,99483.75
2018-01-05T19:07:35.069Z,99487.39
2018-01-05T19:10:07.696Z,99508.49
2018-01-05T19:12:39.189Z,99501.66
2018-01-05T19:15:13.464Z,99495.83
2018-01-05T19:17:54.860Z,99504.27
2018-01-05T19:20:29.597Z,99502.99
2018-01-05T19:23:01.830Z,99505.02
2018-01-05T19:25:33.340Z,99510.16
2018-01-05T19:28:04.633Z,99508.98
2018-01-05T19:30:35.217Z,99513.36
2018-01-05T19:33:09.118Z,99519.45
2018-01-05T19:36:01.510Z,99523.72
2018-01-05T19:38:33.040Z,99527.27
2018-01-05T19:41:03.993Z,99532.61
2018-01-05T19:43:35.378Z,99535.44
2018-01-05T19:46:08.315Z,99548.19
2018-01-05T19:48:52.254Z,99544.52
2018-01-05T19:51:24.481Z,99551.20
2018-01-05T19:53:56.662Z,99549.69
2018-01-05T19:56:31.614Z,99551.94
2018-01-05T19:59:07.173Z,99554.34
2018-01-05T20:01:39.266Z,99561.25
2018-01-05T20:04:10.591Z,99567.39
2018-01-05T20:06:41.920Z,99573.08
2018-01-05T20:09:13.841Z,99572.73
2018-01-05T20:11:46.113Z,99587.28
2018-01-05T20:14:18.670Z,99583.70
2018-01-05T20:16:49.945Z,99584.38
2018-01-05T20:19:21.195Z,99590.58
2018-01-05T20:21:52.922Z,99582.86
2018-01-05T20:24:27.916Z,99600.16
2018-01-05T20:27:00.201Z,99611.37
2018-01-05T20:29:47.162Z,99604.87
2018-01-05T20:32:24.151Z,99613.08
2018-01-05T20:34:57.118Z,99616.65
2018-01-05T20:37:29.606Z,99625.19
2018-01-05T20:40:02.173Z,99634.16
2018-01-05T20:42:34.303Z,99633.86
2018-01-05T20:45:17.762Z,99642.42
2018-01-05T20:47:51.125Z,99641.92
2018-01-05T20:50:23.882Z,99648.52
2018-01-05T20:53:01.935Z,99645.55
2018-01-05T20:55:43.869Z,99645.69
2018-01-05T20:58:26.330Z,99653.38
2018-01-05T21:00:58.740Z,99654.31
2018-01-05T21:03:32.130Z,99651.70
2018-01-05T21:06:10.021Z,99659.95
2018-01-05T21:08:44.865Z,99654.50
2018-01-05T21:11:15.956Z,99657.14
2018-01-05T21:13:46.689Z,99659.14
2018-01-05T21:16:27.247Z,99674.99
2018-01-05T21:19:01.442Z,99674.70
2018-01-05T21:21:36.293Z,99673.72
2018-01-05T21:24:17.723Z,99684.18
2018-01-05T21:26:51.999Z,99688.02
2018-01-05T21:29:26.703Z,99693.23
2018-01-05T21:32:02.042Z,99705.97
2018-01-05T21:34:37.299Z,99715.56
2018-01-05T21:37:09.100Z,99722.02
2018-01-05T21:39:43.202Z,99726.33
2018-01-05T21:42:13.844Z,99715.42
2018-01-05T21:44:46.087Z,99736.05
2018-01-05T21:47:16.844Z,99721.10
2018-01-05T21:49:48.132Z,99754.85
2018-01-05T21:52:18.914Z,99764.44
2018-01-05T21:54:49.394Z,99772.93
2018-01-05T21:57:20.168Z,99777.61
2018-01-05T21:59:51.175Z,99775.16
2018-01-05T22:02:22.150Z,99762.70
2018-01-05T22:04:52.994Z,99767.20
2018-01-05T22:07:25.460Z,99774.05
2018-01-05T22:09:58.006Z,99778.06
2018-01-05T22:12:28.960Z,99773.72
2018-01-05T22:15:03.653Z,99777.86
2018-01-05T22:17:34.542Z,99773.34
2018-01-05T22:20:05.956Z,99769.47
2018-01-05T22:22:36.371Z,99766.22
2018-01-05T22:25:06.924Z,99772.79
2018-01-05T22:27:38.914Z,99764.27
2018-01-05T22:30:10.162Z,99773.27
2018-01-05T22:32:45.622Z,99771.97
2018-01-05T22:35:16.913Z,99777.10
2018-01-05T22:37:47.744Z,99783.04
2018-01-05T22:40:19.108Z,99780.08
2018-01-05T22:42:49.893Z,99787.87
2018-01-05T22:45:20.571Z,99796.19
2018-01-05T22:47:51.713Z,99797.50
2018-01-05T22:50:24.117Z,99798.30
2018-01-05T22:52:56.168Z,99809.44
2018-01-05T22:55:27.109Z,99807.99
2018-01-05T23:00:43.503Z,99823.64
2018-01-05T23:03:14.823Z,99836.09
2018-01-05T23:05:47.433Z,99843.17
2018-01-05T23:08:18.501Z,99841.42
2018-01-05T23:10:49.410Z,99845.75
2018-01-05T23:13:20.046Z,99854.16
2018-01-05T23:15:52.257Z,99861.38
2018-01-05T23:18:22.672Z,99858.64
2018-01-05T23:20:55.170Z,99867.00
2018-01-05T23:23:26.884Z,99867.31
2018-01-05T23:25:57.329Z,99860.05
2018-01-05T23:28:28.743Z,99860.59
2018-01-05T23:30:59.474Z,99857.44
2018-01-05T23:33:30.315Z,99863.11
2018-01-05T23:36:01.689Z,99863.84
2018-01-05T23:38:32.327Z,99861.66
2018-01-05T23:41:03.342Z,99856.88
2018-01-05T23:43:34.508Z,99857.35
2018-01-05T23:46:12.122Z,99859.03
2018-01-05T23:48:43.906Z,99862.09
2018-01-05T23:51:14.378Z,99864.66
2018-01-05T23:53:44.711Z,99865.63
2018-01-05T23:56:26.271Z,99870.76
2018-01-05T23:58:57.592Z,99875.62
